You are listening to:
SUMU Twr/App - Montevideo, Uruguay

SUMU 121700Z 12016KT 9999 FEW026 BKN200 21/13 Q1023 NOSIG

If stream doesn't start automatically press the play button
If stream stops then reload player then press play